createdAt,value
2017-05-31T00:00:12.006Z,21.43
2017-05-31T00:00:52.581Z,21.46
2017-05-31T00:01:33.168Z,21.46
2017-05-31T00:02:13.748Z,21.45
2017-05-31T00:02:54.338Z,21.4
2017-05-31T00:03:34.923Z,21.39
2017-05-31T00:04:15.503Z,21.45
2017-05-31T00:04:56.078Z,21.48
2017-05-31T00:05:36.665Z,21.46
2017-05-31T00:06:17.245Z,21.48
2017-05-31T00:06:57.837Z,21.4
2017-05-31T00:07:38.433Z,21.4
2017-05-31T00:08:19.016Z,21.35
2017-05-31T00:08:59.595Z,21.37
2017-05-31T00:09:40.194Z,21.39
2017-05-31T00:10:20.784Z,21.33
2017-05-31T00:11:01.362Z,21.33
2017-05-31T00:11:41.944Z,21.36
2017-05-31T00:12:22.533Z,21.33
2017-05-31T00:13:03.117Z,21.33
2017-05-31T00:13:43.729Z,21.27
2017-05-31T00:14:24.328Z,21.35
2017-05-31T00:15:04.913Z,21.32
2017-05-31T00:15:45.491Z,21.35
2017-05-31T00:16:26.070Z,21.35
2017-05-31T00:17:06.645Z,21.36
2017-05-31T00:17:47.226Z,21.39
2017-05-31T00:18:27.795Z,21.33
2017-05-31T00:19:08.384Z,21.37
2017-05-31T00:19:48.961Z,21.27
2017-05-31T00:20:29.537Z,21.3
2017-05-31T00:21:10.117Z,21.14
2017-05-31T00:21:50.712Z,21.3
2017-05-31T00:22:31.293Z,21.32
2017-05-31T00:23:11.883Z,21.3
2017-05-31T00:23:52.464Z,21.27
2017-05-31T00:24:33.040Z,21.27
2017-05-31T00:25:13.630Z,21.32
2017-05-31T00:25:54.216Z,21.32
2017-05-31T00:26:34.810Z,21.29
2017-05-31T00:27:15.395Z,21.33
2017-05-31T00:27:55.978Z,21.3
2017-05-31T00:28:36.563Z,21.3
2017-05-31T00:29:17.145Z,21.21
2017-05-31T00:29:57.733Z,21.17
2017-05-31T00:30:38.318Z,21.27
2017-05-31T00:31:18.911Z,21.15
2017-05-31T00:31:59.487Z,21.11
2017-05-31T00:32:40.066Z,21.14
2017-05-31T00:33:20.650Z,21.07
2017-05-31T00:34:01.233Z,20.99
2017-05-31T00:34:41.814Z,21.03
2017-05-31T00:35:22.381Z,21.07
2017-05-31T00:36:02.959Z,20.99
2017-05-31T00:36:43.554Z,21.02
2017-05-31T00:37:24.134Z,21.05
2017-05-31T00:38:04.724Z,21.12
2017-05-31T00:38:45.307Z,21.11
2017-05-31T00:39:25.908Z,21.14
2017-05-31T00:40:06.497Z,21.2
2017-05-31T00:40:47.076Z,21.06
2017-05-31T00:41:27.660Z,21.07
2017-05-31T00:42:08.244Z,21.14
2017-05-31T00:42:48.828Z,21.22
2017-05-31T00:43:29.423Z,21.18
2017-05-31T00:44:10.005Z,21.14
2017-05-31T00:44:50.585Z,21.15
2017-05-31T00:45:31.160Z,21.22
2017-05-31T00:46:11.736Z,21.22
2017-05-31T00:46:52.323Z,21.15
2017-05-31T00:47:32.902Z,21.21
2017-05-31T00:48:13.482Z,21.05
2017-05-31T00:48:54.072Z,21.22
2017-05-31T00:49:34.648Z,21.12
2017-05-31T00:50:15.234Z,21.15
2017-05-31T00:50:55.827Z,21.22
2017-05-31T00:51:36.414Z,21.22
2017-05-31T00:52:17.002Z,21.24
2017-05-31T00:52:57.596Z,21.3
2017-05-31T00:53:38.183Z,21.24
2017-05-31T00:54:18.777Z,21.3
2017-05-31T00:54:59.364Z,21.27
2017-05-31T00:55:39.957Z,21.3
2017-05-31T00:56:20.547Z,21.37
2017-05-31T00:57:01.135Z,21.24
2017-05-31T00:57:41.724Z,21.27
2017-05-31T00:58:22.315Z,21.39
2017-05-31T00:59:02.900Z,21.33
2017-05-31T00:59:43.492Z,21.32
2017-05-31T01:00:24.080Z,21.42
2017-05-31T01:01:04.647Z,21.46
2017-05-31T01:01:45.228Z,21.48
2017-05-31T01:02:25.818Z,21.43
2017-05-31T01:03:06.410Z,21.37
2017-05-31T01:03:46.992Z,21.4
2017-05-31T01:04:27.596Z,21.42
2017-05-31T01:05:08.167Z,21.42
2017-05-31T01:05:48.748Z,21.42
2017-05-31T01:06:29.322Z,21.45
2017-05-31T01:07:09.912Z,21.42
2017-05-31T01:07:50.494Z,21.36
2017-05-31T01:08:31.082Z,21.39
2017-05-31T01:09:11.682Z,21.32
2017-05-31T01:09:52.257Z,21.37
2017-05-31T01:10:32.836Z,21.3
2017-05-31T01:11:13.434Z,21.27
2017-05-31T01:11:54.011Z,21.27
2017-05-31T01:12:34.620Z,21.33
2017-05-31T01:13:15.203Z,21.3
2017-05-31T01:13:55.794Z,21.25
2017-05-31T01:14:36.389Z,21.24
2017-05-31T01:15:16.970Z,21.24
2017-05-31T01:15:57.564Z,21.32
2017-05-31T01:16:38.141Z,21.32
2017-05-31T01:17:18.729Z,21.32
2017-05-31T01:17:59.345Z,21.3
2017-05-31T01:18:39.927Z,21.25
2017-05-31T01:19:20.511Z,21.4
2017-05-31T01:20:01.097Z,21.4
2017-05-31T01:20:41.688Z,21.35
2017-05-31T01:21:22.276Z,21.45
2017-05-31T01:22:02.863Z,21.46
2017-05-31T01:22:43.443Z,21.36
2017-05-31T01:23:24.025Z,21.46
2017-05-31T01:24:04.609Z,21.46
2017-05-31T01:24:45.193Z,21.43
2017-05-31T01:25:25.832Z,21.45
2017-05-31T01:26:06.417Z,21.42
2017-05-31T01:26:46.984Z,21.45
2017-05-31T01:27:27.575Z,21.48
2017-05-31T01:28:08.150Z,21.3
2017-05-31T01:28:48.739Z,21.4
2017-05-31T01:29:29.332Z,21.32
2017-05-31T01:30:09.922Z,21.43
2017-05-31T01:30:50.506Z,21.37
2017-05-31T01:31:31.092Z,21.33
2017-05-31T01:32:11.691Z,21.42
2017-05-31T01:32:52.263Z,21.39
2017-05-31T01:33:32.852Z,21.42
2017-05-31T01:34:13.429Z,21.43
2017-05-31T01:34:54.008Z,21.37
2017-05-31T01:35:34.628Z,21.42
2017-05-31T01:36:15.215Z,21.48
2017-05-31T01:36:55.806Z,21.51
2017-05-31T01:37:36.399Z,21.36
2017-05-31T01:38:16.981Z,21.51
2017-05-31T01:38:57.563Z,21.39
2017-05-31T01:39:38.139Z,21.3
2017-05-31T01:40:18.728Z,21.4
2017-05-31T01:40:59.313Z,21.39
2017-05-31T01:41:39.914Z,21.4
2017-05-31T01:42:20.501Z,21.4
2017-05-31T01:43:01.071Z,21.36
2017-05-31T01:43:41.669Z,21.36
2017-05-31T01:44:22.255Z,21.43
2017-05-31T01:45:02.836Z,21.35
2017-05-31T01:45:43.413Z,21.33
2017-05-31T01:46:23.986Z,21.42
2017-05-31T01:47:04.575Z,21.36
2017-05-31T01:47:45.158Z,21.37
2017-05-31T01:48:25.741Z,21.33
2017-05-31T01:49:06.331Z,21.39
2017-05-31T01:49:46.904Z,21.4
2017-05-31T01:50:27.489Z,21.45
2017-05-31T01:51:08.073Z,21.4
2017-05-31T01:51:48.646Z,21.3
2017-05-31T01:52:29.228Z,21.37
2017-05-31T01:53:09.812Z,21.35
2017-05-31T01:53:50.397Z,21.36
2017-05-31T01:54:30.996Z,21.32
2017-05-31T01:55:11.562Z,21.22
2017-05-31T01:55:52.140Z,21.29
2017-05-31T01:56:32.742Z,21.25
2017-05-31T01:57:13.332Z,21.2
2017-05-31T01:57:53.942Z,21.2
2017-05-31T01:58:34.516Z,21.09
2017-05-31T01:59:15.099Z,21.17
2017-05-31T01:59:55.685Z,21.12
2017-05-31T02:00:36.263Z,21.15
2017-05-31T02:01:16.859Z,21.2
2017-05-31T02:01:57.441Z,21.22
2017-05-31T02:02:38.023Z,21.21
2017-05-31T02:03:18.606Z,21.17
2017-05-31T02:03:59.403Z,21.2
2017-05-31T02:04:39.984Z,21.21
2017-05-31T02:05:20.573Z,21.24
2017-05-31T02:06:01.172Z,21.17
2017-05-31T02:06:41.794Z,21.22
2017-05-31T02:07:22.367Z,21.29
2017-05-31T02:08:02.959Z,21.29
2017-05-31T02:08:43.552Z,21.27
2017-05-31T02:09:24.146Z,21.37
2017-05-31T02:10:04.740Z,21.35
2017-05-31T02:10:45.321Z,21.33
2017-05-31T02:11:25.937Z,21.3
2017-05-31T02:12:06.516Z,21.29
2017-05-31T02:12:47.102Z,21.33
2017-05-31T02:13:27.703Z,21.37
2017-05-31T02:14:08.284Z,21.37
2017-05-31T02:14:48.896Z,21.22
2017-05-31T02:15:29.485Z,21.27
2017-05-31T02:16:10.073Z,21.32
2017-05-31T02:16:50.665Z,21.27
2017-05-31T02:17:31.260Z,21.33
2017-05-31T02:18:11.832Z,21.33
2017-05-31T02:18:52.431Z,21.29
2017-05-31T02:19:33.014Z,21.37
2017-05-31T02:20:13.594Z,21.33
2017-05-31T02:20:54.176Z,21.27
2017-05-31T02:21:34.751Z,21.29
2017-05-31T02:22:15.329Z,21.24
2017-05-31T02:22:55.945Z,21.29
2017-05-31T02:23:36.528Z,21.27
2017-05-31T02:24:17.144Z,21.27
2017-05-31T02:24:57.738Z,21.18
2017-05-31T02:25:38.327Z,21.22
2017-05-31T02:26:18.952Z,21.15
2017-05-31T02:26:59.551Z,21.21
2017-05-31T02:27:40.128Z,21.21
2017-05-31T02:28:20.717Z,21.2
2017-05-31T02:29:01.321Z,21.15
2017-05-31T02:29:41.896Z,21.22
2017-05-31T02:30:22.471Z,21.12
2017-05-31T02:31:03.079Z,21.15
2017-05-31T02:31:43.659Z,21.22
2017-05-31T02:32:24.249Z,21.17
2017-05-31T02:33:04.831Z,21.18
2017-05-31T02:33:45.421Z,21.25
2017-05-31T02:34:25.994Z,21.2
2017-05-31T02:35:06.583Z,21.17
2017-05-31T02:35:47.172Z,21.12
2017-05-31T02:36:27.754Z,21.17
2017-05-31T02:37:08.335Z,21.07
2017-05-31T02:37:48.922Z,21.12
2017-05-31T02:38:29.507Z,21.11
2017-05-31T02:39:10.102Z,21.11
2017-05-31T02:39:50.683Z,21.07
2017-05-31T02:40:31.269Z,21.09
2017-05-31T02:41:12.152Z,21.17
2017-05-31T02:41:55.827Z,21.07
2017-05-31T02:42:38.267Z,21.07
2017-05-31T02:43:20.491Z,21.17
2017-05-31T02:44:07.303Z,21.06
2017-05-31T02:44:50.933Z,21.21
2017-05-31T02:45:34.139Z,21.12
2017-05-31T02:46:17.298Z,21.06
2017-05-31T02:47:00.128Z,21.11
2017-05-31T02:47:41.749Z,21.05
2017-05-31T02:48:26.932Z,21
2017-05-31T02:49:22.195Z,21
2017-05-31T02:50:15.795Z,21.09
2017-05-31T02:50:57.843Z,21.02
2017-05-31T02:51:40.176Z,21.05
2017-05-31T02:52:22.452Z,21.07
2017-05-31T02:53:04.277Z,21.14
2017-05-31T02:53:45.661Z,21.05
2017-05-31T02:54:27.055Z,21.06
2017-05-31T02:55:09.003Z,21.05
2017-05-31T02:55:51.476Z,21.11
2017-05-31T02:56:35.411Z,21.07
2017-05-31T02:57:17.597Z,21.12
2017-05-31T02:57:59.290Z,21.09
2017-05-31T02:58:41.236Z,20.96
2017-05-31T02:59:23.527Z,21
2017-05-31T03:00:05.182Z,20.9
2017-05-31T03:00:45.766Z,20.95
2017-05-31T03:01:26.347Z,20.99
2017-05-31T03:02:06.933Z,20.93
2017-05-31T03:02:47.520Z,20.92
2017-05-31T03:03:28.125Z,20.82
2017-05-31T03:04:08.700Z,20.93
2017-05-31T03:04:49.283Z,20.87
2017-05-31T03:05:29.866Z,20.96
2017-05-31T03:06:10.444Z,20.88
2017-05-31T03:06:51.034Z,20.92
2017-05-31T03:07:31.617Z,20.87
2017-05-31T03:08:12.201Z,20.85
2017-05-31T03:08:52.799Z,20.95
2017-05-31T03:09:33.405Z,20.92
2017-05-31T03:10:13.979Z,20.97
2017-05-31T03:10:54.584Z,20.92
2017-05-31T03:11:35.162Z,20.84
2017-05-31T03:12:15.754Z,20.97
2017-05-31T03:12:56.343Z,20.88
2017-05-31T03:13:36.933Z,20.82
2017-05-31T03:14:17.529Z,20.81
2017-05-31T03:14:58.109Z,20.84
2017-05-31T03:15:38.706Z,20.75
2017-05-31T03:16:19.291Z,20.84
2017-05-31T03:16:59.888Z,20.74
2017-05-31T03:17:40.487Z,20.69
2017-05-31T03:18:21.075Z,20.74
2017-05-31T03:19:01.664Z,20.65
2017-05-31T03:19:42.254Z,20.59
2017-05-31T03:20:22.841Z,20.63
2017-05-31T03:21:03.458Z,20.62
2017-05-31T03:21:44.051Z,20.59
2017-05-31T03:22:24.645Z,20.55
2017-05-31T03:23:05.239Z,20.59
2017-05-31T03:23:45.845Z,20.69
2017-05-31T03:24:26.414Z,20.59
2017-05-31T03:25:07.009Z,20.6
2017-05-31T03:25:47.616Z,20.62
2017-05-31T03:26:28.231Z,20.58
2017-05-31T03:27:08.824Z,20.59
2017-05-31T03:27:49.408Z,20.56
2017-05-31T03:28:29.985Z,20.56
2017-05-31T03:29:10.557Z,20.58
2017-05-31T03:29:51.133Z,20.62
2017-05-31T03:30:31.736Z,20.63
2017-05-31T03:31:12.332Z,20.62
2017-05-31T03:31:52.929Z,20.6
2017-05-31T03:32:33.517Z,20.56
2017-05-31T03:33:14.162Z,20.66
2017-05-31T03:33:54.781Z,20.62
2017-05-31T03:34:35.369Z,20.56
2017-05-31T03:35:15.954Z,20.56
2017-05-31T03:35:56.552Z,20.63
2017-05-31T03:36:37.130Z,20.55
2017-05-31T03:37:17.703Z,20.58
2017-05-31T03:37:58.282Z,20.58
2017-05-31T03:38:38.861Z,20.58
2017-05-31T03:39:19.448Z,20.51
2017-05-31T03:40:00.028Z,20.58
2017-05-31T03:40:40.613Z,20.51
2017-05-31T03:41:21.204Z,20.5
2017-05-31T03:42:01.811Z,20.48
2017-05-31T03:42:42.391Z,20.5
2017-05-31T03:43:22.972Z,20.51
2017-05-31T03:44:03.598Z,20.52
2017-05-31T03:44:44.194Z,20.48
2017-05-31T03:45:24.779Z,20.5
2017-05-31T03:46:05.368Z,20.47
2017-05-31T03:46:45.958Z,20.48
2017-05-31T03:47:26.538Z,20.47
2017-05-31T03:48:07.110Z,20.37
2017-05-31T03:48:47.698Z,20.44
2017-05-31T03:49:28.284Z,20.4
2017-05-31T03:50:08.873Z,20.55
2017-05-31T03:50:49.481Z,20.5
2017-05-31T03:51:30.082Z,20.51
2017-05-31T03:52:10.663Z,20.4
2017-05-31T03:52:51.352Z,20.52
2017-05-31T03:53:31.856Z,20.52
2017-05-31T03:54:12.458Z,20.52
2017-05-31T03:54:53.034Z,20.55
2017-05-31T03:55:33.620Z,20.55
2017-05-31T03:57:29.265Z,20.51
2017-05-31T03:58:23.524Z,20.43
2017-05-31T03:59:04.117Z,20.48
2017-05-31T03:59:49.552Z,20.43
2017-05-31T04:01:25.808Z,20.4
2017-05-31T04:02:23.774Z,20.31
2017-05-31T04:03:04.352Z,20.19
2017-05-31T04:03:45.000Z,20.16
2017-05-31T04:04:25.529Z,20.24
2017-05-31T04:05:06.152Z,20.13
2017-05-31T04:05:46.739Z,20.16
2017-05-31T04:06:27.318Z,20.19
2017-05-31T04:07:07.898Z,20.14
2017-05-31T04:07:48.483Z,20.09
2017-05-31T04:08:29.081Z,20.18
2017-05-31T04:09:09.671Z,20.13
2017-05-31T04:09:50.247Z,20.07
2017-05-31T04:10:30.841Z,20.09
2017-05-31T04:11:11.434Z,20.04
2017-05-31T04:11:52.020Z,20.1
2017-05-31T04:12:32.608Z,19.91
2017-05-31T04:13:13.201Z,20.06
2017-05-31T04:13:53.779Z,19.94
2017-05-31T04:14:34.375Z,19.99
2017-05-31T04:15:14.957Z,19.89
2017-05-31T04:15:55.524Z,19.92
2017-05-31T04:16:36.112Z,19.92
2017-05-31T04:17:16.711Z,19.94
2017-05-31T04:17:57.283Z,19.92
2017-05-31T04:18:37.861Z,19.91
2017-05-31T04:19:18.454Z,19.92
2017-05-31T04:19:59.026Z,19.95
2017-05-31T04:20:39.610Z,19.96
2017-05-31T04:21:20.200Z,19.91
2017-05-31T04:22:00.778Z,20.04
2017-05-31T04:22:41.400Z,20.06
2017-05-31T04:23:21.979Z,20.18
2017-05-31T04:24:02.568Z,20.09
2017-05-31T04:24:43.147Z,20.1
2017-05-31T04:25:23.721Z,20.1
2017-05-31T04:26:04.306Z,20.11
2017-05-31T04:26:44.899Z,20.19
2017-05-31T04:27:25.473Z,20.11
2017-05-31T04:28:06.076Z,20.16
2017-05-31T04:28:46.656Z,20.11
2017-05-31T04:29:27.242Z,20.21
2017-05-31T04:30:07.819Z,20.11
2017-05-31T04:30:48.404Z,20.22
2017-05-31T04:31:29.005Z,20.22
2017-05-31T04:32:09.601Z,20.22
2017-05-31T04:32:50.194Z,20.25
2017-05-31T04:33:30.776Z,20.16
2017-05-31T04:34:11.394Z,20.22
2017-05-31T04:34:51.984Z,20.24
2017-05-31T04:35:32.578Z,20.24
2017-05-31T04:36:13.173Z,20.19
2017-05-31T04:36:53.762Z,20.37
2017-05-31T04:37:34.341Z,20.22
2017-05-31T04:38:14.924Z,20.22
2017-05-31T04:38:55.509Z,20.29
2017-05-31T04:39:36.089Z,20.25
2017-05-31T04:40:16.680Z,20.21
2017-05-31T04:40:57.327Z,20.25
2017-05-31T04:41:37.914Z,20.25
2017-05-31T04:42:18.509Z,20.16
2017-05-31T04:42:59.101Z,20.13
2017-05-31T04:43:39.683Z,20.14
2017-05-31T04:44:20.271Z,20.24
2017-05-31T04:45:00.856Z,20.24
2017-05-31T04:45:41.439Z,20.31
2017-05-31T04:46:22.038Z,20.28
2017-05-31T04:47:02.646Z,20.47
2017-05-31T04:47:43.255Z,20.29
2017-05-31T04:48:23.838Z,20.28
2017-05-31T04:49:04.427Z,20.24
2017-05-31T04:49:45.020Z,20.37
2017-05-31T04:50:25.601Z,20.28
2017-05-31T04:51:06.190Z,20.32
2017-05-31T04:51:46.794Z,20.28
2017-05-31T04:52:27.383Z,20.34
2017-05-31T04:53:07.963Z,20.26
2017-05-31T04:53:48.547Z,20.19
2017-05-31T04:54:29.147Z,20.09
2017-05-31T04:55:09.746Z,20.19
2017-05-31T04:55:50.314Z,20.13
2017-05-31T04:56:30.895Z,20.18
2017-05-31T04:57:11.475Z,20.21
2017-05-31T04:57:52.063Z,20.18
2017-05-31T04:58:32.649Z,20.22
2017-05-31T04:59:13.225Z,20.25
2017-05-31T04:59:53.810Z,20.28
2017-05-31T05:00:34.386Z,20.14
2017-05-31T05:01:14.967Z,20.28
2017-05-31T05:01:55.555Z,20.18
2017-05-31T05:02:36.141Z,20.24
2017-05-31T05:03:16.717Z,20.13
2017-05-31T05:03:57.310Z,20.24
2017-05-31T05:04:37.910Z,20.19
2017-05-31T05:05:18.485Z,20.19
2017-05-31T05:05:59.067Z,20.11
2017-05-31T05:06:39.649Z,20.07
2017-05-31T05:07:20.243Z,20.03
2017-05-31T05:08:00.828Z,20.03
2017-05-31T05:08:41.420Z,20.07
2017-05-31T05:09:22.003Z,20.03
2017-05-31T05:10:02.613Z,20.03
2017-05-31T05:10:43.189Z,19.94
2017-05-31T05:11:23.770Z,19.89
2017-05-31T05:12:04.357Z,20
2017-05-31T05:12:44.944Z,19.92
2017-05-31T05:13:25.534Z,19.94
2017-05-31T05:14:06.107Z,20
2017-05-31T05:14:46.718Z,19.91
2017-05-31T05:15:27.362Z,19.94
2017-05-31T05:16:07.949Z,19.89
2017-05-31T05:16:48.532Z,19.95
2017-05-31T05:17:29.119Z,19.89
2017-05-31T05:18:09.702Z,19.96
2017-05-31T05:18:50.314Z,19.88
2017-05-31T05:19:30.894Z,19.91
2017-05-31T05:20:11.490Z,19.84
2017-05-31T05:20:52.066Z,19.84
2017-05-31T05:21:32.649Z,19.92
2017-05-31T05:22:13.237Z,20
2017-05-31T05:22:53.830Z,19.91
2017-05-31T05:23:34.430Z,19.94
2017-05-31T05:24:15.007Z,19.99
2017-05-31T05:24:55.590Z,20.06
2017-05-31T05:25:36.169Z,19.96
2017-05-31T05:26:16.773Z,19.94
2017-05-31T05:26:57.375Z,20.02
2017-05-31T05:27:37.964Z,20.02
2017-05-31T05:28:19.311Z,19.89
2017-05-31T05:28:59.288Z,20
2017-05-31T05:29:39.868Z,20.09
2017-05-31T05:30:20.473Z,20.18
2017-05-31T05:31:01.124Z,20.14
2017-05-31T05:31:41.715Z,20.24
2017-05-31T05:32:22.332Z,20.28
2017-05-31T05:33:02.993Z,20.26
2017-05-31T05:33:43.587Z,20.26
2017-05-31T05:34:24.343Z,20.36
2017-05-31T05:35:05.026Z,20.29
2017-05-31T05:35:45.632Z,20.31
2017-05-31T05:36:26.237Z,20.32
2017-05-31T05:37:06.843Z,20.39
2017-05-31T05:37:47.497Z,20.36
2017-05-31T05:38:28.088Z,20.52
2017-05-31T05:39:08.686Z,20.62
2017-05-31T05:39:49.271Z,20.65
2017-05-31T05:40:29.879Z,20.8
2017-05-31T05:41:10.492Z,20.85
2017-05-31T05:41:51.076Z,20.84
2017-05-31T05:42:31.767Z,20.81
2017-05-31T05:43:12.359Z,20.8
2017-05-31T05:43:52.984Z,20.66
2017-05-31T05:44:33.588Z,20.56
2017-05-31T05:45:14.176Z,20.5
2017-05-31T05:45:54.786Z,20.52
2017-05-31T05:46:35.412Z,20.43
2017-05-31T05:47:16.030Z,20.51
2017-05-31T05:47:56.614Z,20.59
2017-05-31T05:48:37.211Z,20.72
2017-05-31T05:49:17.818Z,20.82
2017-05-31T05:49:58.434Z,20.88
2017-05-31T05:50:39.021Z,20.93
2017-05-31T05:51:19.635Z,20.95
2017-05-31T05:52:00.248Z,21.12
2017-05-31T05:52:40.830Z,21.07
2017-05-31T05:53:21.430Z,21.06
2017-05-31T05:54:02.028Z,21.14
2017-05-31T05:54:42.633Z,21.18
2017-05-31T05:55:23.229Z,21.36
2017-05-31T05:56:06.121Z,21.46
2017-05-31T05:56:47.328Z,21.54
2017-05-31T05:57:28.248Z,21.62
2017-05-31T05:58:08.853Z,21.73
2017-05-31T05:58:49.561Z,21.76
2017-05-31T05:59:30.283Z,21.82
2017-05-31T06:00:11.012Z,21.95
2017-05-31T06:00:51.938Z,21.91
2017-05-31T06:01:32.522Z,21.98
2017-05-31T06:02:13.150Z,21.96
2017-05-31T06:02:53.823Z,22.02
2017-05-31T06:03:34.427Z,22.04
2017-05-31T06:04:15.103Z,22
2017-05-31T06:04:55.724Z,21.98
2017-05-31T06:05:36.333Z,22.07
2017-05-31T06:06:16.933Z,22.13
2017-05-31T06:06:58.523Z,22.14
2017-05-31T06:07:39.164Z,22.23
2017-05-31T06:08:19.754Z,22.28
2017-05-31T06:09:00.332Z,22.38
2017-05-31T06:09:41.324Z,22.43
2017-05-31T06:10:21.935Z,22.43
2017-05-31T06:11:02.520Z,22.5
2017-05-31T06:11:43.425Z,22.53
2017-05-31T06:12:23.867Z,22.51
2017-05-31T06:13:04.476Z,22.54
2017-05-31T06:13:45.076Z,22.53
2017-05-31T06:14:25.695Z,22.6
2017-05-31T06:15:06.306Z,22.59
2017-05-31T06:15:47.661Z,22.57
2017-05-31T06:16:33.627Z,22.78
2017-05-31T06:17:14.545Z,22.72
2017-05-31T06:17:55.132Z,22.8
2017-05-31T06:18:35.717Z,22.8
2017-05-31T06:19:16.305Z,22.83
2017-05-31T06:19:59.944Z,22.83
2017-05-31T06:20:40.528Z,22.88
2017-05-31T06:21:21.133Z,22.93
2017-05-31T06:22:01.705Z,22.81
2017-05-31T06:22:42.308Z,22.83
2017-05-31T06:23:22.889Z,22.87
2017-05-31T06:24:03.489Z,22.91
2017-05-31T06:24:44.079Z,22.9
2017-05-31T06:25:25.885Z,22.78
2017-05-31T06:26:06.425Z,22.65
2017-05-31T06:26:47.012Z,22.53
2017-05-31T06:27:27.605Z,22.44
2017-05-31T06:28:08.225Z,22.5
2017-05-31T06:28:48.830Z,22.54
2017-05-31T06:29:29.418Z,22.51
2017-05-31T06:30:11.225Z,22.6
2017-05-31T06:30:51.848Z,22.54
2017-05-31T06:31:32.471Z,22.57
2017-05-31T06:32:13.060Z,22.68
2017-05-31T06:32:53.666Z,22.72
2017-05-31T06:33:34.256Z,22.93
2017-05-31T06:34:14.854Z,23.05
2017-05-31T06:34:55.440Z,23.23
2017-05-31T06:35:36.064Z,23.2
2017-05-31T06:36:16.649Z,23.25
2017-05-31T06:36:57.241Z,23.34
2017-05-31T06:37:37.841Z,23.21
2017-05-31T06:38:18.436Z,23.1
2017-05-31T06:38:59.034Z,23.02
2017-05-31T06:39:41.546Z,23.03
2017-05-31T06:40:27.269Z,22.84
2017-05-31T06:41:07.857Z,22.91
2017-05-31T06:41:48.509Z,22.88
2017-05-31T06:42:31.815Z,22.73
2017-05-31T06:43:14.965Z,22.8
2017-05-31T06:44:00.830Z,22.7
2017-05-31T06:44:42.135Z,22.57
2017-05-31T06:45:54.069Z,22.5
2017-05-31T06:46:34.808Z,22.51
2017-05-31T06:47:18.316Z,22.5
2017-05-31T06:47:58.929Z,22.54
2017-05-31T06:48:39.526Z,22.41
2017-05-31T06:49:20.112Z,22.43
2017-05-31T06:50:00.721Z,22.44
2017-05-31T06:50:41.306Z,22.41
2017-05-31T06:51:21.913Z,22.43
2017-05-31T06:52:02.501Z,22.43
2017-05-31T06:52:43.102Z,22.38
2017-05-31T06:53:23.687Z,22.36
2017-05-31T06:54:04.302Z,22.36
2017-05-31T06:54:44.909Z,22.43
2017-05-31T06:55:25.513Z,22.41
2017-05-31T06:56:06.098Z,22.44
2017-05-31T06:56:46.687Z,22.43
2017-05-31T06:57:27.269Z,22.57
2017-05-31T06:58:07.846Z,22.65
2017-05-31T06:58:48.472Z,22.76
2017-05-31T06:59:29.087Z,22.91
2017-05-31T07:00:09.688Z,22.85
2017-05-31T07:00:52.040Z,22.96
2017-05-31T07:01:37.086Z,23.08
2017-05-31T07:02:18.293Z,23.21
2017-05-31T07:02:58.875Z,23.34
2017-05-31T07:03:39.457Z,23.37
2017-05-31T07:04:20.049Z,23.43
2017-05-31T07:05:00.646Z,23.44
2017-05-31T07:05:41.245Z,23.48
2017-05-31T07:06:21.854Z,23.61
2017-05-31T07:07:02.447Z,23.54
2017-05-31T07:07:43.458Z,23.63
2017-05-31T07:08:26.626Z,23.48
2017-05-31T07:09:07.228Z,23.48
2017-05-31T07:09:47.809Z,23.44
2017-05-31T07:10:31.632Z,23.46
2017-05-31T07:11:16.768Z,23.41
2017-05-31T07:11:58.619Z,23.5
2017-05-31T07:12:40.367Z,23.59
2017-05-31T07:13:24.772Z,23.71
2017-05-31T07:14:05.370Z,23.76
2017-05-31T07:14:45.963Z,23.86
2017-05-31T07:15:32.318Z,23.96
2017-05-31T07:16:12.947Z,23.87
2017-05-31T07:16:53.530Z,23.92
2017-05-31T07:17:34.125Z,23.96
2017-05-31T07:18:14.708Z,24.1
2017-05-31T07:18:55.313Z,24.08
2017-05-31T07:19:35.938Z,24.08
2017-05-31T07:20:16.543Z,24.13
2017-05-31T07:20:57.137Z,24.18
2017-05-31T07:21:37.733Z,24.13
2017-05-31T07:22:20.019Z,24.01
2017-05-31T07:23:00.630Z,23.98
2017-05-31T07:23:41.241Z,23.84
2017-05-31T07:24:21.853Z,23.62
2017-05-31T07:25:02.439Z,23.47
2017-05-31T07:25:43.054Z,23.31
2017-05-31T07:26:28.784Z,23.24
2017-05-31T07:27:11.213Z,23.05
2017-05-31T07:27:51.803Z,23.02
2017-05-31T07:28:32.482Z,22.81
2017-05-31T07:29:13.734Z,22.63
2017-05-31T07:29:54.632Z,22.54
2017-05-31T07:30:37.955Z,22.39
2017-05-31T07:31:18.551Z,22.28
2017-05-31T07:31:59.142Z,22.18
2017-05-31T07:32:39.731Z,22.17
2017-05-31T07:33:20.313Z,22.11
2017-05-31T07:34:00.897Z,22.11
2017-05-31T07:34:41.489Z,22.17
2017-05-31T07:35:27.709Z,22.02
2017-05-31T07:36:08.759Z,22.07
2017-05-31T07:36:49.350Z,22.04
2017-05-31T07:37:29.936Z,21.93
2017-05-31T07:38:12.333Z,21.79
2017-05-31T07:38:59.395Z,21.88
2017-05-31T07:39:39.999Z,21.83
2017-05-31T07:40:20.668Z,21.85
2017-05-31T07:41:01.264Z,21.89
2017-05-31T07:41:41.850Z,21.88
2017-05-31T07:42:24.709Z,21.91
2017-05-31T07:43:07.098Z,22
2017-05-31T07:43:47.685Z,22.02
2017-05-31T07:44:28.278Z,22.1
2017-05-31T07:45:08.867Z,21.99
2017-05-31T07:45:49.457Z,22.04
2017-05-31T07:46:30.036Z,21.98
2017-05-31T07:47:11.768Z,21.92
2017-05-31T07:47:52.381Z,21.91
2017-05-31T07:48:33.001Z,21.77
2017-05-31T07:49:16.297Z,21.8
2017-05-31T07:49:56.882Z,21.73
2017-05-31T07:50:37.457Z,21.54
2017-05-31T07:51:18.040Z,21.7
2017-05-31T07:51:58.687Z,21.67
2017-05-31T07:52:43.091Z,21.67
2017-05-31T07:53:23.675Z,21.69
2017-05-31T07:54:04.300Z,21.79
2017-05-31T07:54:44.971Z,21.93
2017-05-31T07:55:25.565Z,22.07
2017-05-31T07:56:06.168Z,22.15
2017-05-31T07:56:46.886Z,22.32
2017-05-31T07:57:27.486Z,22.38
2017-05-31T07:58:08.107Z,22.43
2017-05-31T07:58:48.693Z,22.63
2017-05-31T07:59:29.293Z,22.54
2017-05-31T08:00:10.252Z,22.59
2017-05-31T08:00:50.853Z,22.6
2017-05-31T08:01:31.449Z,22.47
2017-05-31T08:02:12.045Z,22.45
2017-05-31T08:02:52.629Z,22.38
2017-05-31T08:03:33.226Z,22.39
2017-05-31T08:04:13.815Z,22.5
2017-05-31T08:04:54.416Z,22.55
2017-05-31T08:05:35.006Z,22.59
2017-05-31T08:06:16.315Z,22.65
2017-05-31T08:06:56.915Z,22.8
2017-05-31T08:07:37.491Z,22.73
2017-05-31T08:08:18.067Z,22.9
2017-05-31T08:09:03.135Z,23.03
2017-05-31T08:09:48.265Z,23.02
2017-05-31T08:10:29.387Z,23.08
2017-05-31T08:11:10.009Z,23.1
2017-05-31T08:11:50.781Z,23.06
2017-05-31T08:12:31.378Z,23
2017-05-31T08:13:11.966Z,22.99
2017-05-31T08:13:52.558Z,23.02
2017-05-31T08:14:33.159Z,23.12
2017-05-31T08:15:13.748Z,23.12
2017-05-31T08:15:54.334Z,23.36
2017-05-31T08:16:34.924Z,23.37
2017-05-31T08:17:15.502Z,23.48
2017-05-31T08:17:56.085Z,23.54
2017-05-31T08:18:36.691Z,23.61
2017-05-31T08:19:17.272Z,23.76
2017-05-31T08:19:57.928Z,23.78
2017-05-31T08:20:38.520Z,23.86
2017-05-31T08:21:19.111Z,23.83
2017-05-31T08:21:59.709Z,23.81
2017-05-31T08:22:40.304Z,23.68
2017-05-31T08:23:20.914Z,23.62
2017-05-31T08:24:01.495Z,23.54
2017-05-31T08:24:42.080Z,23.58
2017-05-31T08:25:22.662Z,23.41
2017-05-31T08:26:03.297Z,23.34
2017-05-31T08:26:43.894Z,23.34
2017-05-31T08:27:24.476Z,23.18
2017-05-31T08:28:05.051Z,23.12
2017-05-31T08:28:45.647Z,22.93
2017-05-31T08:29:26.233Z,22.91
2017-05-31T08:30:06.823Z,22.76
2017-05-31T08:30:47.413Z,22.72
2017-05-31T08:31:28.021Z,22.65
2017-05-31T08:32:08.636Z,22.68
2017-05-31T08:32:49.220Z,22.6
2017-05-31T08:33:29.807Z,22.53
2017-05-31T08:34:10.402Z,22.44
2017-05-31T08:34:50.980Z,22.51
2017-05-31T08:35:31.560Z,22.43
2017-05-31T08:36:12.148Z,22.54
2017-05-31T08:36:52.760Z,22.62
2017-05-31T08:37:33.346Z,22.81
2017-05-31T08:38:13.982Z,22.75
2017-05-31T08:38:54.575Z,22.76
2017-05-31T08:39:35.177Z,22.88
2017-05-31T08:40:15.752Z,22.96
2017-05-31T08:40:56.370Z,23.08
2017-05-31T08:41:37.025Z,23.1
2017-05-31T08:42:17.640Z,23.18
2017-05-31T08:42:58.250Z,23.39
2017-05-31T08:43:38.848Z,23.46
2017-05-31T08:44:19.501Z,23.44
2017-05-31T08:45:00.122Z,23.51
2017-05-31T08:45:40.727Z,23.63
2017-05-31T08:46:21.347Z,23.76
2017-05-31T08:47:01.977Z,23.78
2017-05-31T08:47:42.568Z,23.8
2017-05-31T08:48:23.152Z,23.87
2017-05-31T08:49:03.740Z,23.87
2017-05-31T08:49:44.335Z,23.88
2017-05-31T08:50:24.958Z,23.87
2017-05-31T08:51:05.607Z,23.91
2017-05-31T08:51:46.194Z,23.78